Time;durP1;ratioP1;P1;durP2;ratioP2;P2;SDS_P1;SDS_P2;PMS_P1;PMS_P2;Temp;Humidity;BMP_temperature;BMP_pressure;BME280_temperature;BME280_humidity;BME280_pressure;Samples;Min_cycle;Max_cycle;Signal;HPM_P1;HPM_P2
2023/09/14 00:00:52;;;;;;;2.90;2.70;;;11.40;1.00;;;;;;4994628;28;20394;-73
2023/09/14 00:03:19;;;;;;;3.97;2.33;;;11.40;1.00;;;;;;4994278;28;20169;-73
2023/09/14 00:05:47;;;;;;;4.57;2.60;;;11.30;1.00;;;;;;4993376;28;20463;-74
2023/09/14 00:08:13;;;;;;;6.63;3.10;;;11.30;1.00;;;;;;4976267;28;20434;-74
2023/09/14 00:10:40;;;;;;;4.43;2.60;;;11.30;1.00;;;;;;4994240;28;20371;-74
2023/09/14 00:13:07;;;;;;;2.30;2.10;;;11.20;1.00;;;;;;4994315;28;20391;-75
2023/09/14 00:15:33;;;;;;;3.30;3.00;;;11.20;1.00;;;;;;4993392;28;20486;-75
2023/09/14 00:17:59;;;;;;;3.07;2.77;;;11.20;1.00;;;;;;4994025;28;20395;-75
2023/09/14 00:20:27;;;;;;;2.87;2.17;;;11.20;1.00;;;;;;4994238;28;20390;-73
2023/09/14 00:22:55;;;;;;;3.07;2.77;;;11.20;1.00;;;;;;4994090;28;20248;-74
2023/09/14 00:25:21;;;;;;;2.50;2.30;;;11.20;1.00;;;;;;4993256;28;20375;-75
2023/09/14 00:27:48;;;;;;;2.90;2.60;;;11.20;1.00;;;;;;4993163;28;20458;-74
2023/09/14 00:30:14;;;;;;;3.30;2.13;;;11.20;1.00;;;;;;4994053;28;20780;-74
2023/09/14 00:32:42;;;;;;;2.87;2.60;;;11.10;1.00;;;;;;4993964;28;20475;-74
2023/09/14 00:35:09;;;;;;;2.50;2.30;;;11.10;1.00;;;;;;4993633;28;20375;-75
2023/09/14 00:37:36;;;;;;;4.10;2.23;;;11.00;1.00;;;;;;4993124;28;20936;-75
2023/09/14 00:40:06;;;;;;;6.07;2.80;;;11.00;1.00;;;;;;4993855;28;20450;-74
2023/09/14 00:45:56;;;;;;;2.33;2.13;;;11.00;1.00;;;;;;4973092;28;20393;-74
2023/09/14 00:48:21;;;;;;;4.17;2.20;;;10.90;1.00;;;;;;4993115;28;20517;-74
2023/09/14 00:50:47;;;;;;;2.60;2.40;;;10.90;1.00;;;;;;4993638;28;20466;-75
2023/09/14 00:53:16;;;;;;;2.90;2.67;;;10.90;1.00;;;;;;4993739;28;20855;-74
2023/09/14 00:55:44;;;;;;;2.57;2.37;;;10.90;1.00;;;;;;4992802;28;20465;-74
2023/09/14 00:58:15;;;;;;;2.37;2.10;;;10.90;1.00;;;;;;4993465;28;20432;-74
2023/09/14 01:00:42;;;;;;;3.17;2.43;;;10.80;1.00;;;;;;4993540;28;20415;-75
2023/09/14 01:03:11;;;;;;;2.50;2.30;;;10.80;1.00;;;;;;4993098;28;20371;-75
2023/09/14 01:05:39;;;;;;;4.43;2.60;;;10.80;1.00;;;;;;4992636;28;20407;-74
2023/09/14 01:08:05;;;;;;;4.13;2.40;;;10.80;1.00;;;;;;4993363;28;20448;-75
2023/09/14 01:10:31;;;;;;;5.20;2.60;;;10.80;1.00;;;;;;4993271;28;20428;-74
2023/09/14 01:12:57;;;;;;;3.47;3.17;;;10.70;1.00;;;;;;4993584;28;20407;-74
2023/09/14 01:15:36;;;;;;;2.93;2.30;;;10.70;1.00;;;;;;4998790;28;20191;-75
2023/09/14 01:18:26;;;;;;;3.20;2.67;;;10.70;1.00;;;;;;4982632;28;20461;-74
2023/09/14 01:21:26;;;;;;;6.53;2.50;;;10.70;1.00;;;;;;4982793;28;20398;-73
2023/09/14 01:24:01;;;;;;;2.37;2.17;;;10.70;1.00;;;;;;4999297;28;20896;-74
2023/09/14 01:26:29;;;;;;;2.93;2.73;;;10.70;1.00;;;;;;4981648;28;20477;-75
2023/09/14 01:28:55;;;;;;;3.33;2.30;;;10.70;1.00;;;;;;4999857;28;21009;-75
2023/09/14 01:31:28;;;;;;;3.40;2.83;;;10.70;1.00;;;;;;4999815;28;20458;-74
2023/09/14 01:33:54;;;;;;;6.77;2.40;;;10.70;1.00;;;;;;4999825;28;20795;-75
2023/09/14 01:36:36;;;;;;;4.40;2.90;;;10.70;1.00;;;;;;4998916;28;20447;-73
2023/09/14 01:39:53;;;;;;;2.80;2.47;;;10.70;1.00;;;;;;4999629;28;20736;-75
2023/09/14 01:42:22;;;;;;;3.13;2.57;;;10.70;1.00;;;;;;4902858;29;20420;-74
2023/09/14 01:44:49;;;;;;;3.27;2.10;;;10.70;1.00;;;;;;4901653;29;20385;-73
2023/09/14 01:47:16;;;;;;;3.13;2.50;;;10.60;1.00;;;;;;4973772;28;20529;-74
2023/09/14 01:49:42;;;;;;;2.60;2.40;;;10.60;1.00;;;;;;4999591;28;20447;-74
2023/09/14 01:52:32;;;;;;;3.47;2.03;;;10.60;1.00;;;;;;4999700;28;20515;-75
2023/09/14 01:55:03;;;;;;;5.33;3.13;;;10.60;1.00;;;;;;4987670;28;20401;-74
2023/09/14 01:57:29;;;;;;;2.70;2.50;;;10.60;1.00;;;;;;4998194;28;20848;-74
2023/09/14 01:59:54;;;;;;;3.50;2.33;;;10.60;1.00;;;;;;4999450;28;20494;-75
2023/09/14 02:02:23;;;;;;;3.23;2.13;;;10.60;1.00;;;;;;4999657;28;20177;-74
2023/09/14 02:04:50;;;;;;;4.10;2.30;;;10.60;1.00;;;;;;4999243;28;20212;-75
2023/09/14 02:07:16;;;;;;;4.60;3.40;;;10.60;1.00;;;;;;4981274;28;20432;-74
2023/09/14 02:09:42;;;;;;;3.60;3.20;;;10.60;1.00;;;;;;4999503;28;20284;-74
2023/09/14 02:12:07;;;;;;;2.50;2.30;;;10.50;1.00;;;;;;4999251;28;20172;-74
2023/09/14 02:14:33;;;;;;;4.90;2.80;;;10.50;1.00;;;;;;4998964;28;20177;-74
2023/09/14 02:16:59;;;;;;;5.83;2.50;;;10.50;1.00;;;;;;4998471;28;20420;-74
2023/09/14 02:19:25;;;;;;;3.27;2.57;;;10.50;1.00;;;;;;4981847;28;20191;-74
2023/09/14 02:21:51;;;;;;;5.50;2.97;;;10.50;1.00;;;;;;4999393;28;20177;-74
2023/09/14 02:24:17;;;;;;;2.37;2.17;;;10.40;1.00;;;;;;4999558;28;20204;-74
2023/09/14 02:26:42;;;;;;;3.77;2.77;;;10.40;1.00;;;;;;4994287;28;20403;-73
2023/09/14 02:29:08;;;;;;;2.70;2.50;;;10.40;1.00;;;;;;4996120;28;20192;-74
2023/09/14 02:31:34;;;;;;;3.30;2.60;;;10.40;1.00;;;;;;4996134;28;20466;-74
2023/09/14 02:34:00;;;;;;;4.40;4.10;;;10.40;1.00;;;;;;4995713;28;20179;-75
2023/09/14 02:36:26;;;;;;;2.70;2.50;;;10.40;1.00;;;;;;4994955;28;20383;-74
2023/09/14 02:38:52;;;;;;;3.30;3.00;;;10.40;1.00;;;;;;4978606;28;20168;-74
2023/09/14 02:41:18;;;;;;;5.30;3.03;;;10.40;1.00;;;;;;4996037;28;20739;-75
2023/09/14 02:43:44;;;;;;;2.23;2.10;;;10.40;1.00;;;;;;4996064;28;20211;-74
2023/09/14 02:46:10;;;;;;;5.47;2.77;;;10.40;1.00;;;;;;4995082;28;20169;-75
2023/09/14 02:48:35;;;;;;;2.53;2.43;;;10.40;1.00;;;;;;4995662;28;20200;-74
2023/09/14 02:51:01;;;;;;;3.27;2.97;;;10.40;1.00;;;;;;4995889;28;20228;-74
2023/09/14 02:53:27;;;;;;;2.73;2.50;;;10.40;1.00;;;;;;4995306;28;20622;-73
2023/09/14 02:55:52;;;;;;;3.57;2.50;;;10.30;1.00;;;;;;4994925;28;20173;-73
2023/09/14 02:58:18;;;;;;;2.80;2.53;;;10.30;1.00;;;;;;4978316;28;20207;-74
2023/09/14 03:00:44;;;;;;;2.90;2.30;;;10.30;1.00;;;;;;4995750;28;20169;-74
2023/09/14 03:03:10;;;;;;;3.93;2.53;;;10.30;1.00;;;;;;4995320;28;20641;-75
2023/09/14 03:05:35;;;;;;;4.93;2.80;;;10.20;1.00;;;;;;4994726;28;20177;-74
2023/09/14 03:08:01;;;;;;;5.03;2.73;;;10.20;1.00;;;;;;4995392;28;20193;-74
2023/09/14 03:10:27;;;;;;;4.40;3.10;;;10.30;1.00;;;;;;4995517;28;20225;-75
2023/09/14 03:12:53;;;;;;;3.00;2.80;;;10.30;1.00;;;;;;4977416;28;20387;-75
2023/09/14 03:15:19;;;;;;;4.63;2.40;;;10.30;1.00;;;;;;4994558;28;20507;-75
2023/09/14 03:17:44;;;;;;;3.97;2.80;;;10.30;1.00;;;;;;4995038;28;20658;-74
2023/09/14 03:20:10;;;;;;;5.83;3.10;;;10.20;1.00;;;;;;4995495;28;20173;-73
2023/09/14 03:22:36;;;;;;;3.03;2.80;;;10.20;1.00;;;;;;4995260;28;20177;-73
2023/09/14 03:25:02;;;;;;;5.33;3.10;;;10.20;1.00;;;;;;4995227;28;20416;-75
2023/09/14 03:27:28;;;;;;;2.93;2.60;;;10.20;1.00;;;;;;4994190;28;20193;-75
2023/09/14 03:29:54;;;;;;;3.30;2.47;;;10.20;1.00;;;;;;4994607;28;20510;-73
2023/09/14 03:32:20;;;;;;;2.80;2.57;;;10.20;1.00;;;;;;4995027;28;20169;-74
2023/09/14 03:34:45;;;;;;;6.70;3.10;;;10.10;1.00;;;;;;4995083;28;20256;-75
2023/09/14 03:37:11;;;;;;;2.60;2.40;;;10.20;1.00;;;;;;4993703;28;20197;-74
2023/09/14 03:39:37;;;;;;;3.50;2.77;;;10.10;1.00;;;;;;4977567;28;20264;-74
2023/09/14 03:42:02;;;;;;;3.00;2.60;;;10.10;1.00;;;;;;4994827;28;20173;-75
2023/09/14 03:44:28;;;;;;;3.70;2.73;;;10.10;1.00;;;;;;4994857;28;20172;-73
2023/09/14 03:46:54;;;;;;;3.00;2.80;;;10.10;1.00;;;;;;4993880;28;20467;-74
2023/09/14 03:49:20;;;;;;;3.03;2.83;;;10.10;1.00;;;;;;4994059;28;20199;-74
2023/09/14 03:51:46;;;;;;;2.93;2.73;;;10.10;1.00;;;;;;4994736;28;20749;-75
2023/09/14 03:54:11;;;;;;;3.13;2.60;;;10.10;1.00;;;;;;4994889;28;20169;-74
2023/09/14 03:56:38;;;;;;;3.50;2.93;;;10.00;1.00;;;;;;4993696;28;20252;-75
2023/09/14 03:59:04;;;;;;;2.50;2.30;;;10.00;1.00;;;;;;4994618;28;20169;-74
2023/09/14 04:01:29;;;;;;;2.63;2.40;;;10.00;1.00;;;;;;4994458;28;20404;-74
2023/09/14 04:03:55;;;;;;;5.57;2.73;;;9.90;1.00;;;;;;4994388;28;20770;-74
2023/09/14 04:06:21;;;;;;;4.40;3.00;;;9.90;1.00;;;;;;4993000;28;20174;-74
2023/09/14 04:08:46;;;;;;;3.10;2.80;;;9.90;1.00;;;;;;4994247;28;20291;-74
2023/09/14 04:11:12;;;;;;;3.37;2.77;;;9.90;1.00;;;;;;4994321;28;20161;-74
2023/09/14 04:13:39;;;;;;;3.40;3.20;;;9.90;1.00;;;;;;4994319;28;20581;-74
2023/09/14 04:16:06;;;;;;;3.20;2.90;;;9.90;1.00;;;;;;4993171;28;20176;-73
2023/09/14 04:18:38;;;;;;;4.27;3.33;;;9.90;1.00;;;;;;4976981;28;20435;-74
2023/09/14 04:21:05;;;;;;;3.83;3.13;;;9.90;1.00;;;;;;4976714;28;20391;-73
2023/09/14 04:23:31;;;;;;;3.20;2.80;;;9.90;1.00;;;;;;4976916;28;20401;-75
2023/09/14 04:25:57;;;;;;;3.03;2.83;;;9.90;1.00;;;;;;4992745;28;20458;-75
2023/09/14 04:28:23;;;;;;;4.60;2.90;;;9.90;1.00;;;;;;4994220;28;20561;-74
2023/09/14 04:30:52;;;;;;;3.00;2.70;;;9.80;1.00;;;;;;4994411;28;20404;-75
2023/09/14 04:33:18;;;;;;;3.40;2.70;;;9.80;1.00;;;;;;4976607;28;20456;-75
2023/09/14 04:35:44;;;;;;;2.40;2.17;;;9.70;1.00;;;;;;4993094;28;21052;-73
2023/09/14 04:38:11;;;;;;;4.23;2.57;;;9.60;1.00;;;;;;4976300;28;20435;-75
2023/09/14 04:40:39;;;;;;;4.50;3.27;;;9.50;1.00;;;;;;4976647;28;20419;-75
2023/09/14 04:43:05;;;;;;;2.73;2.53;;;9.50;1.00;;;;;;4993364;28;20438;-75
2023/09/14 04:45:32;;;;;;;2.70;2.50;;;9.40;1.00;;;;;;4992982;28;20404;-75
2023/09/14 04:47:58;;;;;;;6.63;2.80;;;9.40;1.00;;;;;;4993185;28;20897;-74
2023/09/14 04:50:24;;;;;;;3.63;3.37;;;9.40;1.00;;;;;;4993406;28;20423;-74
2023/09/14 04:52:50;;;;;;;3.17;2.97;;;9.30;1.00;;;;;;4993759;28;20419;-75
2023/09/14 04:55:15;;;;;;;3.90;3.60;;;9.40;1.00;;;;;;4992977;28;20470;-74
2023/09/14 04:57:41;;;;;;;3.37;3.07;;;9.40;1.00;;;;;;4993375;28;20185;-74
2023/09/14 05:00:10;;;;;;;3.00;2.70;;;9.40;1.00;;;;;;4993557;28;20176;-74
2023/09/14 05:02:37;;;;;;;3.60;2.50;;;9.30;1.00;;;;;;4993127;28;20187;-74
2023/09/14 05:05:06;;;;;;;3.27;2.97;;;9.30;1.00;;;;;;4975873;28;20916;-73
2023/09/14 05:07:31;;;;;;;3.00;2.80;;;9.30;1.00;;;;;;4975385;28;20440;-76
2023/09/14 05:09:57;;;;;;;3.97;3.27;;;9.30;1.00;;;;;;4993453;28;20546;-74
2023/09/14 05:12:23;;;;;;;5.17;3.80;;;9.30;1.00;;;;;;4993383;28;20374;-74
2023/09/14 05:14:49;;;;;;;3.63;3.20;;;9.30;1.00;;;;;;4993555;28;20465;-74
2023/09/14 05:17:15;;;;;;;3.20;2.90;;;9.30;1.00;;;;;;4975421;28;20454;-76
2023/09/14 05:19:42;;;;;;;3.83;3.10;;;9.30;1.00;;;;;;4992892;28;20183;-75
2023/09/14 05:22:08;;;;;;;3.30;2.93;;;9.40;1.00;;;;;;4993288;28;20180;-75
2023/09/14 05:24:34;;;;;;;2.80;2.60;;;9.40;1.00;;;;;;4993240;28;20426;-74
2023/09/14 05:27:00;;;;;;;3.10;2.90;;;9.40;1.00;;;;;;4992363;28;20529;-74
2023/09/14 05:29:26;;;;;;;3.40;3.10;;;9.50;1.00;;;;;;4993238;28;20626;-75
2023/09/14 05:31:52;;;;;;;3.00;2.80;;;9.50;1.00;;;;;;4993396;28;20428;-75
2023/09/14 05:34:18;;;;;;;4.00;3.00;;;9.50;1.00;;;;;;4993365;28;20173;-75
2023/09/14 05:36:44;;;;;;;2.70;2.50;;;9.50;1.00;;;;;;4992099;28;20189;-74
2023/09/14 05:39:09;;;;;;;3.10;2.90;;;9.50;1.00;;;;;;4992872;28;20943;-74
2023/09/14 05:41:35;;;;;;;11.17;2.60;;;9.50;1.00;;;;;;4975811;28;20180;-74
2023/09/14 05:44:05;;;;;;;4.87;2.90;;;9.60;1.00;;;;;;4993236;28;20188;-74
2023/09/14 05:46:30;;;;;;;4.57;3.07;;;9.60;1.00;;;;;;4992038;28;20383;-73
2023/09/14 05:48:56;;;;;;;3.50;3.20;;;9.70;1.00;;;;;;4975914;28;20590;-78
2023/09/14 05:51:23;;;;;;;3.07;2.87;;;9.70;1.00;;;;;;4993080;28;20192;-79
2023/09/14 05:53:49;;;;;;;3.93;3.53;;;9.70;3.30;;;;;;4975550;28;20169;-79
2023/09/14 05:56:15;;;;;;;3.37;3.00;;;9.70;8.10;;;;;;4991510;28;20901;-78
2023/09/14 05:58:40;;;;;;;4.53;3.33;;;9.80;11.90;;;;;;4993070;28;20244;-78
2023/09/14 06:01:06;;;;;;;3.63;3.30;;;9.80;15.20;;;;;;4995824;28;20165;-79
2023/09/14 06:03:32;;;;;;;3.67;3.30;;;9.80;18.40;;;;;;4996858;28;20191;-78
2023/09/14 06:05:58;;;;;;;4.50;3.77;;;9.90;25.50;;;;;;4995768;28;20173;-74
2023/09/14 06:08:23;;;;;;;4.83;4.33;;;10.00;31.40;;;;;;4979278;28;20208;-74
2023/09/14 06:10:49;;;;;;;6.90;3.50;;;10.00;42.90;;;;;;4996538;28;20636;-74
2023/09/14 06:13:16;;;;;;;4.13;3.00;;;10.10;50.40;;;;;;4996015;28;20169;-74
2023/09/14 06:15:42;;;;;;;3.23;2.70;;;10.10;56.00;;;;;;4995745;28;20624;-74
2023/09/14 06:18:08;;;;;;;3.80;3.17;;;10.20;64.10;;;;;;4979004;28;20460;-74
2023/09/14 06:20:34;;;;;;;3.30;2.60;;;10.30;70.70;;;;;;4996351;28;20406;-73
2023/09/14 06:23:00;;;;;;;3.00;2.80;;;10.30;73.10;;;;;;4996261;28;20169;-74
2023/09/14 06:25:25;;;;;;;3.50;2.87;;;10.40;84.90;;;;;;4978122;28;21006;-74
2023/09/14 06:27:51;;;;;;;7.53;2.73;;;10.50;92.20;;;;;;4996210;28;20217;-74
2023/09/14 06:30:17;;;;;;;3.30;2.80;;;10.70;92.30;;;;;;4995738;28;20211;-74
2023/09/14 06:32:43;;;;;;;5.40;3.40;;;10.80;92.40;;;;;;4996193;28;20169;-74
2023/09/14 06:35:09;;;;;;;12.50;8.50;;;11.00;98.60;;;;;;4995957;28;20170;-74
2023/09/14 06:37:35;;;;;;;12.63;8.50;;;11.10;99.90;;;;;;4977922;28;20673;-74
2023/09/14 06:40:00;;;;;;;13.80;8.50;;;11.30;99.90;;;;;;4978887;28;20431;-74
2023/09/14 06:42:26;;;;;;;7.20;3.27;;;11.40;99.90;;;;;;4995805;28;20169;-74
2023/09/14 06:44:52;;;;;;;7.17;3.80;;;11.60;99.90;;;;;;4978774;28;20180;-74
2023/09/14 06:47:17;;;;;;;4.20;2.93;;;11.70;99.90;;;;;;4994394;28;20680;-75
2023/09/14 06:49:43;;;;;;;2.73;2.53;;;11.80;99.90;;;;;;4995573;28;20251;-74
2023/09/14 06:52:09;;;;;;;2.53;2.33;;;11.90;99.90;;;;;;4995928;28;20165;-75
2023/09/14 06:54:35;;;;;;;3.10;2.80;;;12.00;99.90;;;;;;4995840;28;20894;-74
2023/09/14 06:57:04;;;;;;;6.43;3.27;;;12.00;99.90;;;;;;4994768;28;20686;-74
2023/09/14 06:59:29;;;;;;;4.80;3.83;;;12.10;99.90;;;;;;4995723;28;20231;-75
2023/09/14 07:01:58;;;;;;;54.73;28.70;;;12.20;99.90;;;;;;4995751;28;20418;-74
2023/09/14 07:04:24;;;;;;;49.40;19.83;;;12.20;99.90;;;;;;4995528;28;20777;-74
2023/09/14 07:06:53;;;;;;;8.47;5.67;;;12.30;99.90;;;;;;4994232;28;20506;-74
2023/09/14 07:09:54;;;;;;;;;;;;;;;;;;;;;
2023/09/14 07:12:29;;;;;;;11.20;5.50;;;12.40;99.90;;;;;;4957452;28;20401;-74
2023/09/14 07:19:15;;;;;;;;;;;;;;;;;;;;;
2023/09/14 07:21:36;;;;;;;6.63;4.37;;;12.80;93.90;;;;;;4990839;28;20420;-74
2023/09/14 07:24:26;;;;;;;;;;;;;;;;;;;;;
2023/09/14 07:26:53;;;;;;;7.53;4.07;;;13.00;93.10;;;;;;4993743;28;20403;-73
2023/09/14 07:30:11;;;;;;;5.20;3.23;;;13.10;83.30;;;;;;4977500;28;20462;-73
2023/09/14 07:32:39;;;;;;;6.90;3.40;;;13.20;61.00;;;;;;4979358;28;20417;-75
2023/09/14 07:35:06;;;;;;;9.13;3.07;;;13.30;34.70;;;;;;4995065;28;20386;-75
2023/09/14 07:37:32;;;;;;;2.20;2.10;;;13.40;14.30;;;;;;4994308;28;20476;-75
2023/09/14 07:43:23;;;;;;;3.97;3.67;;;13.50;1.00;;;;;;4994356;28;20920;-74
2023/09/14 07:46:00;;;;;;;6.60;3.97;;;13.70;1.00;;;;;;4993860;28;20412;-74
2023/09/14 07:55:33;;;;;;;6.67;3.87;;;14.00;1.00;;;;;;4994412;28;20405;-73
2023/09/14 08:01:53;;;;;;;;;;;;;;;;;;;;;
2023/09/14 08:14:34;;;;;;;3.63;1.47;;;15.00;1.00;;;;;;4972715;28;20364;-74
2023/09/14 08:17:00;;;;;;;2.60;1.30;;;15.20;1.00;;;;;;4971940;28;20421;-73
2023/09/14 08:19:33;;;;;;;2.53;1.20;;;15.30;1.00;;;;;;4992334;28;20952;-75
2023/09/14 08:21:59;;;;;;;5.10;0.90;;;15.30;1.00;;;;;;4993639;28;20408;-75
2023/09/14 08:24:25;;;;;;;1.50;1.07;;;15.50;1.00;;;;;;4993119;28;20408;-74
2023/09/14 08:27:03;;;;;;;1.40;1.27;;;15.70;1.00;;;;;;4975735;28;20435;-72
2023/09/14 08:29:38;;;;;;;2.80;1.03;;;15.80;1.00;;;;;;4993970;28;20816;-72
2023/09/14 08:32:13;;;;;;;1.17;0.90;;;15.90;1.00;;;;;;4994183;28;20494;-73
2023/09/14 08:34:39;;;;;;;3.17;1.60;;;16.00;1.00;;;;;;4994039;28;20543;-75
2023/09/14 08:37:09;;;;;;;1.30;1.20;;;16.10;1.00;;;;;;4992759;28;20428;-73
2023/09/14 08:39:35;;;;;;;3.20;1.00;;;16.20;1.00;;;;;;4993453;28;20448;-72
2023/09/14 08:42:01;;;;;;;5.27;1.40;;;16.20;1.00;;;;;;4993925;28;20535;-74
2023/09/14 08:44:36;;;;;;;5.97;1.10;;;16.10;1.00;;;;;;4993936;28;20527;-72
2023/09/14 08:47:02;;;;;;;3.30;1.20;;;16.20;1.00;;;;;;4992845;28;20427;-74
2023/09/14 08:49:39;;;;;;;2.43;1.10;;;16.30;1.00;;;;;;4976383;28;20810;-74
2023/09/14 08:52:07;;;;;;;1.70;1.00;;;16.50;1.00;;;;;;4993715;28;20404;-73
2023/09/14 08:54:42;;;;;;;3.00;1.10;;;16.80;1.00;;;;;;4993075;28;20915;-74
2023/09/14 08:57:11;;;;;;;5.33;1.10;;;17.00;1.00;;;;;;4992748;28;20435;-74
2023/09/14 08:59:38;;;;;;;3.77;1.00;;;17.40;1.00;;;;;;4993472;28;20415;-72
2023/09/14 09:02:11;;;;;;;5.87;1.20;;;17.60;1.00;;;;;;4993485;28;20431;-72
2023/09/14 09:04:36;;;;;;;1.97;1.13;;;17.80;1.00;;;;;;4993568;28;20511;-76
2023/09/14 09:07:09;;;;;;;4.10;1.10;;;18.10;99.90;;;;;;4992760;28;20512;-72
2023/09/14 09:09:49;;;;;;;3.20;1.30;;;18.10;99.90;;;;;;4993622;28;20861;-73
2023/09/14 09:12:18;;;;;;;1.50;1.00;;;18.30;99.90;;;;;;4992998;28;20404;-74
2023/09/14 09:14:45;;;;;;;1.80;1.13;;;18.20;99.90;;;;;;4993745;28;20404;-73
2023/09/14 09:17:11;;;;;;;1.67;0.97;;;18.20;99.90;;;;;;4975726;28;20436;-73
2023/09/14 09:20:01;;;;;;;2.97;1.10;;;18.40;99.90;;;;;;4993713;28;20920;-73
2023/09/14 09:22:28;;;;;;;2.07;1.23;;;18.60;99.90;;;;;;4993446;28;20204;-72
2023/09/14 09:24:55;;;;;;;3.53;1.23;;;18.90;99.90;;;;;;4993504;28;20416;-77
2023/09/14 09:27:30;;;;;;;1.30;0.90;;;18.90;99.90;;;;;;4992481;28;20527;-75
2023/09/14 09:30:00;;;;;;;3.20;2.37;;;19.10;99.90;;;;;;4992765;28;20451;-73
2023/09/14 09:35:25;;;;;;;1.90;1.30;;;19.00;99.90;;;;;;4934425;29;20407;-74
2023/09/14 09:38:23;;;;;;;6.43;1.43;;;18.90;99.90;;;;;;4991503;28;20439;-76
2023/09/14 09:40:49;;;;;;;2.77;1.50;;;18.60;99.90;;;;;;4960550;28;20436;-76
2023/09/14 09:43:37;;;;;;;2.50;1.37;;;18.10;99.90;;;;;;4997438;28;20915;-73
2023/09/14 09:46:02;;;;;;;5.57;1.20;;;17.80;99.90;;;;;;4995400;28;20451;-76
2023/09/14 09:48:28;;;;;;;2.00;1.10;;;17.60;99.90;;;;;;4996980;28;20570;-77
2023/09/14 09:50:55;;;;;;;2.93;1.13;;;17.70;99.90;;;;;;4997062;28;20945;-73
2023/09/14 09:53:21;;;;;;;2.23;1.70;;;17.60;99.90;;;;;;4979736;28;20455;-76
2023/09/14 09:55:47;;;;;;;2.33;1.30;;;17.70;99.90;;;;;;4994665;28;20621;-71
2023/09/14 09:58:18;;;;;;;2.53;1.23;;;17.90;99.90;;;;;;4979570;28;20486;-76
2023/09/14 10:01:28;;;;;;;1.87;1.10;;;18.00;99.90;;;;;;4997009;28;20511;-78
2023/09/14 10:03:56;;;;;;;3.37;0.93;;;18.90;99.90;;;;;;4978216;28;20442;-72
2023/09/14 10:06:33;;;;;;;3.30;1.10;;;19.70;99.90;;;;;;4995597;28;20415;-77
2023/09/14 10:09:20;;;;;;;3.50;1.90;;;20.30;99.90;;;;;;4978736;28;20465;-72
2023/09/14 10:11:53;;;;;;;1.80;1.40;;;20.80;99.90;;;;;;4996504;28;20427;-78
2023/09/14 10:14:21;;;;;;;3.20;1.27;;;21.50;99.90;;;;;;4996461;28;20411;-79
2023/09/14 10:16:52;;;;;;;6.03;1.60;;;22.00;99.90;;;;;;4995665;28;20523;-79
2023/09/14 10:19:27;;;;;;;3.47;1.63;;;21.90;99.90;;;;;;4996578;28;20415;-78
2023/09/14 10:22:15;;;;;;;4.33;1.10;;;21.50;99.90;;;;;;4996310;28;20478;-77
2023/09/14 10:24:45;;;;;;;1.93;1.17;;;21.60;99.90;;;;;;4978835;28;20430;-73
2023/09/14 10:27:17;;;;;;;3.73;0.90;;;21.70;99.90;;;;;;4995345;28;20519;-75
2023/09/14 10:29:44;;;;;;;5.10;1.43;;;21.70;99.90;;;;;;4996274;28;20467;-79
2023/09/14 10:32:39;;;;;;;2.13;1.00;;;21.60;99.90;;;;;;4979166;28;20447;-73
2023/09/14 10:35:05;;;;;;;3.53;0.97;;;21.70;99.90;;;;;;4996074;28;20412;-79
2023/09/14 10:37:34;;;;;;;5.07;1.27;;;21.70;99.90;;;;;;4995295;28;20436;-73
2023/09/14 10:40:02;;;;;;;2.27;0.97;;;21.10;99.90;;;;;;4996176;28;20440;-73
2023/09/14 10:42:28;;;;;;;2.53;0.83;;;20.90;99.90;;;;;;4995347;28;20451;-73
2023/09/14 10:44:54;;;;;;;5.30;1.30;;;21.10;99.90;;;;;;4978684;28;20420;-76
2023/09/14 10:47:23;;;;;;;3.03;1.20;;;21.00;99.90;;;;;;4994018;28;20197;-72
2023/09/14 10:49:50;;;;;;;2.93;1.00;;;20.70;99.90;;;;;;4995736;28;20971;-73
2023/09/14 10:52:53;;;;;;;2.20;1.10;;;20.40;99.90;;;;;;4978531;28;20964;-77
2023/09/14 10:55:25;;;;;;;5.17;1.50;;;20.30;99.90;;;;;;4994996;28;20885;-78
2023/09/14 10:57:52;;;;;;;4.43;1.00;;;20.10;99.90;;;;;;4995568;28;20439;-74
2023/09/14 11:00:55;;;;;;;4.60;1.00;;;20.20;99.90;;;;;;4995079;28;20412;-74
2023/09/14 11:03:24;;;;;;;4.00;1.77;;;20.20;99.90;;;;;;4983240;28;20443;-78
2023/09/14 11:05:52;;;;;;;3.53;0.90;;;20.20;99.90;;;;;;4994568;28;20431;-73
2023/09/14 11:08:21;;;;;;;3.10;1.00;;;20.20;99.90;;;;;;4995553;28;20475;-73
2023/09/14 11:10:58;;;;;;;2.70;1.40;;;20.00;99.90;;;;;;4995264;28;20408;-79
2023/09/14 11:14:00;;;;;;;2.50;1.20;;;19.90;99.90;;;;;;4995663;28;20408;-77
2023/09/14 11:16:41;;;;;;;3.57;1.03;;;19.90;99.90;;;;;;4985856;28;20418;-79
2023/09/14 11:19:10;;;;;;;1.80;1.47;;;20.00;99.90;;;;;;4995341;28;20423;-78
2023/09/14 11:24:44;;;;;;;2.47;1.30;;;20.10;99.90;;;;;;4965219;28;20466;-74
2023/09/14 11:27:20;;;;;;;6.23;1.13;;;20.40;99.90;;;;;;4976798;28;20463;-73
2023/09/14 11:29:52;;;;;;;3.73;1.20;;;20.80;99.90;;;;;;4995168;28;20477;-78
2023/09/14 11:32:28;;;;;;;1.40;0.97;;;20.80;99.90;;;;;;4995074;28;20414;-73
2023/09/14 11:34:57;;;;;;;1.13;0.80;;;20.90;99.90;;;;;;4994950;28;20400;-75
2023/09/14 11:37:25;;;;;;;2.27;1.10;;;20.80;99.90;;;;;;4994206;28;20421;-73
2023/09/14 11:39:54;;;;;;;2.80;1.07;;;20.60;99.90;;;;;;4994927;28;20412;-73
2023/09/14 11:42:24;;;;;;;1.33;0.90;;;20.50;99.90;;;;;;4977619;28;20787;-77
2023/09/14 11:47:35;;;;;;;4.60;1.23;;;20.40;99.90;;;;;;4994234;28;20463;-73
2023/09/14 11:50:05;;;;;;;12.57;1.30;;;20.50;99.90;;;;;;4994857;28;20487;-78
2023/09/14 11:52:33;;;;;;;3.10;0.97;;;20.60;99.90;;;;;;4994636;28;20401;-74
2023/09/14 11:55:00;;;;;;;2.67;1.33;;;21.00;99.90;;;;;;4994118;28;20899;-74
2023/09/14 11:57:29;;;;;;;1.40;1.03;;;21.50;99.90;;;;;;4993605;28;20432;-77
2023/09/14 12:00:16;;;;;;;3.00;1.87;;;21.50;99.90;;;;;;4994665;28;20912;-79
2023/09/14 12:02:51;;;;;;;2.80;2.60;;;21.30;99.90;;;;;;4993881;28;20427;-74
2023/09/14 12:05:20;;;;;;;4.20;2.40;;;21.00;99.90;;;;;;4976130;28;20874;-78
2023/09/14 12:10:35;;;;;;;3.13;1.70;;;20.70;99.90;;;;;;4994484;28;20491;-74
2023/09/14 12:13:14;;;;;;;3.03;1.30;;;20.80;99.90;;;;;;4993074;28;20436;-75
2023/09/14 12:16:17;;;;;;;1.37;1.27;;;20.50;99.90;;;;;;4992722;28;20168;-73
2023/09/14 12:18:43;;;;;;;2.17;0.80;;;20.30;99.90;;;;;;4994382;28;20487;-74
2023/09/14 12:21:10;;;;;;;2.70;0.87;;;21.30;99.90;;;;;;4994227;28;20918;-78
2023/09/14 12:23:38;;;;;;;1.80;1.03;;;22.80;99.90;;;;;;4994066;28;20408;-77
2023/09/14 12:26:11;;;;;;;2.17;1.10;;;22.90;99.90;;;;;;4993406;28;20397;-74
2023/09/14 12:28:39;;;;;;;7.23;1.03;;;23.40;99.90;;;;;;4993836;28;20956;-78
2023/09/14 12:31:16;;;;;;;2.33;0.93;;;23.40;99.90;;;;;;4994032;28;20439;-74
2023/09/14 12:33:43;;;;;;;2.57;1.00;;;22.90;99.90;;;;;;4993281;28;20408;-74
2023/09/14 12:36:11;;;;;;;6.97;1.00;;;22.50;99.90;;;;;;4992996;28;20404;-77
2023/09/14 12:38:38;;;;;;;3.73;1.00;;;22.10;99.90;;;;;;4992650;28;20846;-77
2023/09/14 12:41:05;;;;;;;2.47;1.30;;;21.60;99.90;;;;;;4993993;28;20408;-73
2023/09/14 12:43:32;;;;;;;2.77;1.40;;;21.30;99.90;;;;;;4993889;28;20412;-74
2023/09/14 12:45:58;;;;;;;2.40;1.63;;;20.90;99.90;;;;;;4992969;28;20507;-74
2023/09/14 12:48:35;;;;;;;2.10;1.57;;;20.70;99.90;;;;;;4993583;28;20455;-73
2023/09/14 12:51:07;;;;;;;2.77;1.17;;;20.90;99.90;;;;;;4993364;28;20411;-74
2023/09/14 12:53:43;;;;;;;2.00;1.20;;;22.60;99.90;;;;;;4993534;28;20451;-74
2023/09/14 12:56:14;;;;;;;2.40;0.90;;;23.70;99.90;;;;;;4992844;28;20404;-74
2023/09/14 12:58:44;;;;;;;1.20;1.00;;;23.50;99.90;;;;;;4993622;28;20503;-79
2023/09/14 13:01:10;;;;;;;2.60;1.17;;;22.80;99.90;;;;;;4993541;28;20499;-73
2023/09/14 13:03:37;;;;;;;5.10;0.90;;;22.30;99.90;;;;;;4993341;28;20534;-78
2023/09/14 13:06:03;;;;;;;4.97;1.67;;;21.80;99.90;;;;;;4992703;28;20694;-79
2023/09/14 13:08:41;;;;;;;3.40;1.10;;;21.50;99.90;;;;;;4993419;28;20519;-76
2023/09/14 13:11:19;;;;;;;2.80;1.13;;;21.20;99.90;;;;;;4991085;28;20900;-77
2023/09/14 13:13:48;;;;;;;1.60;1.10;;;20.90;99.90;;;;;;4975956;28;20844;-73
2023/09/14 13:16:20;;;;;;;1.97;0.90;;;20.70;99.90;;;;;;4992493;28;20408;-74
2023/09/14 13:18:49;;;;;;;1.17;0.87;;;20.50;99.90;;;;;;4993544;28;20404;-78
2023/09/14 13:21:58;;;;;;;;;;;;;;;;;;;;;
2023/09/14 13:24:36;;;;;;;2.13;1.03;;;20.30;99.90;;;;;;4993433;28;20403;-79
2023/09/14 13:27:03;;;;;;;4.10;0.90;;;22.10;99.90;;;;;;4992986;28;20432;-78
2023/09/14 13:29:28;;;;;;;1.00;0.70;;;23.90;99.90;;;;;;4993441;28;20451;-73
2023/09/14 13:31:54;;;;;;;6.77;1.43;;;25.30;99.90;;;;;;4993785;28;20458;-72
2023/09/14 13:34:20;;;;;;;1.27;0.80;;;25.40;99.90;;;;;;4993391;28;20173;-79
2023/09/14 13:36:46;;;;;;;1.10;0.80;;;26.00;99.90;;;;;;4992469;28;20273;-74
2023/09/14 13:39:12;;;;;;;2.00;0.80;;;26.90;99.90;;;;;;4993371;28;20168;-73
2023/09/14 13:41:38;;;;;;;1.43;1.33;;;27.40;99.90;;;;;;4993435;28;20225;-74
2023/09/14 13:44:06;;;;;;;2.33;0.80;;;27.40;99.90;;;;;;4993341;28;20400;-77
2023/09/14 13:46:31;;;;;;;2.07;0.80;;;27.90;99.90;;;;;;4991995;28;20176;-79
2023/09/14 13:48:57;;;;;;;1.10;0.90;;;28.10;99.90;;;;;;4975351;28;20817;-74
2023/09/14 13:51:23;;;;;;;2.70;1.00;;;27.60;99.90;;;;;;4993280;28;20196;-72
2023/09/14 13:53:49;;;;;;;2.50;0.80;;;27.30;99.90;;;;;;4993178;28;20176;-73
2023/09/14 13:56:15;;;;;;;1.77;0.93;;;27.20;99.90;;;;;;4992129;28;20161;-75